Weather at Murray Field

Public forecast

Using degrees Fahrenheit for public forecast. Weather courtesy of forecast.io.

Current aviation weather report (METAR) for Murray Field

Report is more than 6 hours old.

Retrieved 2020/07/12 23:00 UTC (3 months ago):

KEKA 122300Z 34009KT 7SM CLR 18/ A3004 RMK AO2 T0183 NOSPECI

Closest aviation forecast (TAF) to Murray Field

Closest forecast is California Redwood Coast-Humboldt County Airport, 10.5 nm (19.4 km) N. Retrieved 2020/09/28 12:33 UTC (2 hours ago):

TAF KACV 281130Z 2812/2912 04007KT 6SM HZ SKC FM281900 32008KT 5SM HZ SKC FM290300 VRB04KT P6SM SKC